Weather History for Thedford, NE

Change the Weather History Date:

Friday, April 5, 2013

  Actual Average (KLBF) Record (KLBF)
Temperature  
Mean Temperature 58 °F 44 °F  
Max Temperature 78 °F 59 °F 87 °F (1991)
Min Temperature 39 °F 29 °F 15 °F (1968)
Degree Days  
Heating Degree Days 7 21  
Month to date heating degree days 108  
Since 1 July heating degree days 5973  
Cooling Degree Days 0 0  
Month to date cooling degree days 0  
Year to date cooling degree days 0  
Growing Degree Days 8 (Base 50)    
Moisture  
Dew Point 26 °F    
Average Humidity 34    
Maximum Humidity 71    
Minimum Humidity 12    
Precipitation  
Precipitation 0.00 in 0.05 in 0.62 in (1999)
Month to date precipitation 0.26  
Year to date precipitation 2.15  
Snow  
Snow 0.00 in 0.20 in 4.90 in (2007)
Month to date snowfall 0.8  
Since 1 July snowfall 26.1  
Snow Depth -    
Sea Level Pressure  
Sea Level Pressure 29.80 in    
Wind  
Wind Speed 12 mph (South)    
Max Wind Speed 25 mph    
Max Gust Speed 37 mph    
Visibility 10 miles    
Events      
T = Trace of Precipitation, MM = Missing Value Source: NWS Daily Summary

Daily Weather History Graph

Daily Weather History Graph

Search for Another Location

Airport:

Trip Planner

Search our weather history database for the weather conditions in past years. The results will help you decide how hot, cold, wet, or windy it might be!

Date:

Astronomy

Apr. 05, 2013 Rise Set
Actual Time 7:17 AM CDT 8:12 PM CDT
Civil Twilight 6:49 AM CDT 8:41 PM CDT
Nautical Twilight 6:15 AM CDT 9:14 PM CDT
Astronomical Twilight 5:40 AM CDT 9:50 PM CDT
Moon 4:30 AM CDT (4/5) 3:34 PM CDT (4/5)
Length of Visible Light 13h 51m
Length of Day
12h 54m
Waning Crescent, 23% of the Moon is Illuminated
Apr 5
Waning Crescent
Apr 10
New
Apr 18
First Quarter
Apr 25
Full
May 2
Last Quarter

Hourly Weather History & Observations

Time (CDT) Temp. Windchill Dew Point Humidity Pressure Visibility Wind Dir Wind Speed Gust Speed Precip Events Conditions
12:15 AM 42.4 °F 38.1 °F 22.1 °F 44% 30.06 in 10.0 mi SE 6.9 mph - N/A   Clear
12:35 AM 42.8 °F 38.0 °F 22.5 °F 45% 30.05 in 10.0 mi SE 8.1 mph - N/A   Clear
12:55 AM 42.1 °F 37.7 °F 22.1 °F 45% 30.05 in 10.0 mi SE 6.9 mph - N/A   Clear
1:15 AM 41.2 °F 37.3 °F 22.3 °F 47% 30.04 in 10.0 mi SE 5.8 mph - N/A   Clear
1:35 AM 41.5 °F 36.4 °F 22.5 °F 47% 30.05 in 10.0 mi SE 8.1 mph - N/A   Mostly Cloudy
1:55 AM 42.8 °F 38.6 °F 22.1 °F 44% 30.05 in 10.0 mi SE 6.9 mph - N/A   Scattered Clouds
2:15 AM 43.3 °F 38.6 °F 22.1 °F 43% 30.05 in 10.0 mi SE 8.1 mph - N/A   Scattered Clouds
2:35 AM 42.8 °F 38.0 °F 22.5 °F 45% 30.04 in 10.0 mi ESE 8.1 mph - N/A   Scattered Clouds
2:55 AM 43.0 °F 38.2 °F 22.1 °F 44% 30.03 in 10.0 mi ESE 8.1 mph - N/A   Scattered Clouds
3:15 AM 42.1 °F 36.6 °F 22.1 °F 45% 30.01 in 10.0 mi ESE 9.2 mph - N/A   Scattered Clouds
3:35 AM 40.5 °F 35.1 °F 22.1 °F 48% 30.01 in 10.0 mi ESE 8.1 mph - N/A   Clear
3:55 AM 39.9 °F 35.1 °F 22.5 °F 50% 30.00 in 10.0 mi ESE 6.9 mph - N/A   Clear
4:15 AM 40.1 °F 33.6 °F 23.0 °F 51% 29.99 in 10.0 mi ESE 10.4 mph - N/A   Clear
4:35 AM 41.4 °F 35.7 °F 23.5 °F 49% 29.98 in 10.0 mi ESE 9.2 mph - N/A   Clear
4:55 AM 42.1 °F 35.7 °F 24.6 °F 50% 29.97 in 10.0 mi SE 11.5 mph - N/A   Clear
5:15 AM 41.9 °F 35.9 °F 25.9 °F 53% 29.96 in 10.0 mi SE 10.4 mph - N/A   Clear
5:35 AM 41.2 °F 36.0 °F 26.8 °F 57% 29.96 in 10.0 mi SE 8.1 mph - N/A   Clear
5:55 AM 40.1 °F 33.6 °F 27.1 °F 60% 29.95 in 10.0 mi SE 10.4 mph - N/A   Clear
6:15 AM 40.1 °F 34.1 °F 28.2 °F 63% 29.95 in 10.0 mi SE 9.2 mph - N/A   Clear
6:35 AM 39.4 °F 33.2 °F 28.9 °F 66% 29.94 in 10.0 mi SE 9.2 mph - N/A   Clear
6:55 AM 39.2 °F 33.0 °F 29.7 °F 69% 29.93 in 10.0 mi SE 9.2 mph - N/A   Clear
7:15 AM 39.0 °F 33.4 °F 30.2 °F 71% 29.93 in 10.0 mi SE 8.1 mph - N/A   Clear
7:35 AM 40.3 °F 34.4 °F 31.1 °F 70% 29.93 in 10.0 mi SSE 9.2 mph - N/A   Clear
7:55 AM 41.7 °F 35.2 °F 31.5 °F 67% 29.92 in 10.0 mi SSE 11.5 mph - N/A   Clear
8:15 AM 43.9 °F 37.2 °F 31.8 °F 63% 29.91 in 10.0 mi SSE 13.8 mph - N/A   Clear
8:35 AM 45.9 °F 40.0 °F 31.8 °F 58% 29.91 in 10.0 mi SSE 12.7 mph 18.4 mph N/A   Clear
8:55 AM 46.8 °F - 31.8 °F 56% 29.90 in 10.0 mi South 17.3 mph 23.0 mph N/A   Clear
9:15 AM 48.9 °F - 32.0 °F 52% 29.90 in 10.0 mi SSE 15.0 mph 21.9 mph N/A   Clear
9:35 AM 51.1 °F - 32.0 °F 48% 29.89 in 10.0 mi South 17.3 mph 20.7 mph N/A   Clear
9:55 AM 53.1 °F - 31.8 °F 44% 29.87 in 10.0 mi SSE 15.0 mph 21.9 mph N/A   Clear
10:15 AM 55.4 °F - 31.3 °F 40% 29.86 in 10.0 mi South 18.4 mph 23.0 mph N/A   Clear
10:35 AM 57.4 °F - 30.4 °F 36% 29.85 in 10.0 mi South 16.1 mph 20.7 mph N/A   Clear
10:55 AM 60.3 °F - 28.9 °F 31% 29.85 in 10.0 mi South 18.4 mph 24.2 mph N/A   Clear
11:15 AM 61.7 °F - 29.1 °F 29% 29.84 in 10.0 mi South 20.7 mph 26.5 mph N/A   Clear
11:35 AM 61.9 °F - 28.9 °F 29% 29.82 in 10.0 mi South 19.6 mph 26.5 mph N/A   Clear
11:55 AM 64.0 °F - 27.7 °F 25% 29.81 in 10.0 mi South 19.6 mph 26.5 mph N/A   Clear
12:15 PM 64.8 °F - 26.4 °F 23% 29.80 in 10.0 mi South 20.7 mph 35.7 mph N/A   Clear
12:35 PM 66.0 °F - 26.2 °F 22% 29.79 in 10.0 mi SSW 24.2 mph 34.5 mph N/A   Clear
12:55 PM 65.8 °F - 25.7 °F 22% 29.78 in 10.0 mi South 25.3 mph 34.5 mph N/A   Clear
1:15 PM 67.1 °F - 26.1 °F 21% 29.77 in 10.0 mi South 20.7 mph 36.8 mph N/A   Clear
1:35 PM 69.3 °F - 25.5 °F 19% 29.75 in 10.0 mi South 21.9 mph 34.5 mph N/A   Clear
1:55 PM 69.8 °F - 23.9 °F 18% 29.74 in 10.0 mi SSW 24.2 mph 34.5 mph N/A   Clear
2:15 PM 70.0 °F - 24.4 °F 18% 29.73 in 10.0 mi South 25.3 mph 32.2 mph N/A   Clear
2:35 PM 71.4 °F - 24.8 °F 17% 29.71 in 10.0 mi South 24.2 mph 31.1 mph N/A   Clear
2:55 PM 73.0 °F - 24.6 °F 16% 29.69 in 10.0 mi South 21.9 mph 28.8 mph N/A   Clear
3:15 PM 74.3 °F - 21.4 °F 14% 29.68 in 10.0 mi South 20.7 mph 27.6 mph N/A   Clear
3:35 PM 74.5 °F - 20.8 °F 13% 29.66 in 10.0 mi South 17.3 mph 24.2 mph N/A   Clear
3:55 PM 76.5 °F - 21.2 °F 13% 29.65 in 10.0 mi South 19.6 mph 25.3 mph N/A   Clear
4:15 PM 77.5 °F - 21.7 °F 13% 29.64 in 10.0 mi South 23.0 mph 28.8 mph N/A   Clear
4:35 PM 76.3 °F - 21.7 °F 13% 29.63 in 10.0 mi South 17.3 mph 26.5 mph N/A   Clear
4:55 PM 76.5 °F - 21.9 °F 13% 29.62 in 10.0 mi South 16.1 mph 24.2 mph N/A   Clear
5:15 PM 77.7 °F - 22.1 °F 13% 29.61 in 10.0 mi South 15.0 mph 20.7 mph N/A   Clear
5:35 PM 77.9 °F - 21.9 °F 12% 29.60 in 10.0 mi South 12.7 mph 23.0 mph N/A   Clear
5:55 PM 76.6 °F - 21.9 °F 13% 29.60 in 10.0 mi South 18.4 mph 23.0 mph N/A   Mostly Cloudy
6:15 PM 75.2 °F - 22.6 °F 14% 29.60 in 10.0 mi South 19.6 mph 24.2 mph N/A   Overcast
6:35 PM 73.8 °F - 23.7 °F 15% 29.61 in 10.0 mi South 17.3 mph 24.2 mph N/A   Overcast
6:55 PM 74.3 °F - 23.7 °F 15% 29.61 in 10.0 mi South 11.5 mph 19.6 mph N/A   Overcast
7:15 PM 74.5 °F - 23.4 °F 15% 29.61 in 10.0 mi South 5.8 mph - N/A   Overcast
7:35 PM 73.4 °F - 24.4 °F 16% 29.60 in 10.0 mi SW 6.9 mph - N/A   Overcast
7:55 PM 73.0 °F - 24.1 °F 16% 29.61 in 10.0 mi SSW 13.8 mph 18.4 mph N/A   Overcast
8:15 PM 72.7 °F - 25.5 °F 17% 29.60 in 10.0 mi SSW 12.7 mph 21.9 mph N/A   Overcast
8:35 PM 71.8 °F - 24.8 °F 17% 29.60 in 10.0 mi South 9.2 mph 17.3 mph N/A   Overcast
8:55 PM 69.8 °F - 25.7 °F 19% 29.59 in 10.0 mi SSE 8.1 mph - N/A   Mostly Cloudy
9:15 PM 68.2 °F - 26.1 °F 21% 29.60 in 10.0 mi South 8.1 mph - N/A   Mostly Cloudy
9:35 PM 67.1 °F - 26.6 °F 22% 29.60 in 10.0 mi South 9.2 mph - N/A   Mostly Cloudy
9:55 PM 67.3 °F - 27.1 °F 22% 29.61 in 10.0 mi SSW 9.2 mph - N/A   Mostly Cloudy
10:15 PM 66.7 °F - 27.5 °F 23% 29.61 in 10.0 mi SSW 9.2 mph - N/A   Mostly Cloudy
10:35 PM 66.4 °F - 27.5 °F 23% 29.63 in 10.0 mi West 12.7 mph - N/A   Mostly Cloudy
10:55 PM 66.2 °F - 27.7 °F 24% 29.62 in 10.0 mi West 5.8 mph - N/A   Mostly Cloudy
11:15 PM 66.7 °F - 27.1 °F 23% 29.62 in 10.0 mi WSW 11.5 mph - N/A   Mostly Cloudy
11:35 PM 67.3 °F - 27.7 °F 23% 29.62 in 10.0 mi West 15.0 mph - N/A   Overcast
11:55 PM 66.2 °F - 30.6 °F 26% 29.62 in 10.0 mi SW 9.2 mph - N/A   Scattered Clouds